sensor_id;sensor_type;location;lat;lon;timestamp;temperature;humidity
44894;DHT22;30625;52.206;21.030;2023-12-28T00:00:59;1.80;99.90
44894;DHT22;30625;52.206;21.030;2023-12-28T00:03:26;1.60;99.90
44894;DHT22;30625;52.206;21.030;2023-12-28T00:05:52;1.60;99.90
44894;DHT22;30625;52.206;21.030;2023-12-28T00:08:19;1.70;99.90
44894;DHT22;30625;52.206;21.030;2023-12-28T00:10:44;1.80;99.90
44894;DHT22;30625;52.206;21.030;2023-12-28T00:13:11;1.70;99.90
44894;DHT22;30625;52.206;21.030;2023-12-28T00:15:37;1.70;99.90
44894;DHT22;30625;52.206;21.030;2023-12-28T00:18:02;1.70;99.90
44894;DHT22;30625;52.206;21.030;2023-12-28T00:20:28;1.70;99.90
44894;DHT22;30625;52.206;21.030;2023-12-28T00:22:54;1.70;99.90
44894;DHT22;30625;52.206;21.030;2023-12-28T00:25:19;1.60;99.90
44894;DHT22;30625;52.206;21.030;2023-12-28T00:27:46;1.60;99.90
44894;DHT22;30625;52.206;21.030;2023-12-28T00:30:13;1.60;99.90
44894;DHT22;30625;52.206;21.030;2023-12-28T00:32:43;1.70;99.90
44894;DHT22;30625;52.206;21.030;2023-12-28T00:35:10;1.50;99.90
44894;DHT22;30625;52.206;21.030;2023-12-28T00:37:36;1.60;99.90
44894;DHT22;30625;52.206;21.030;2023-12-28T00:40:01;1.60;99.90
44894;DHT22;30625;52.206;21.030;2023-12-28T00:42:27;1.50;99.90
44894;DHT22;30625;52.206;21.030;2023-12-28T00:44:53;1.50;99.90
44894;DHT22;30625;52.206;21.030;2023-12-28T00:47:20;1.50;99.90
44894;DHT22;30625;52.206;21.030;2023-12-28T00:49:47;1.40;99.90
44894;DHT22;30625;52.206;21.030;2023-12-28T00:52:13;1.40;99.90
44894;DHT22;30625;52.206;21.030;2023-12-28T00:54:39;1.50;99.90
44894;DHT22;30625;52.206;21.030;2023-12-28T00:57:09;1.50;99.90
44894;DHT22;30625;52.206;21.030;2023-12-28T00:59:39;1.50;99.90
44894;DHT22;30625;52.206;21.030;2023-12-28T01:02:06;1.40;99.90
44894;DHT22;30625;52.206;21.030;2023-12-28T01:04:31;1.20;99.90
44894;DHT22;30625;52.206;21.030;2023-12-28T01:06:57;1.30;99.90
44894;DHT22;30625;52.206;21.030;2023-12-28T01:09:27;1.30;99.90
44894;DHT22;30625;52.206;21.030;2023-12-28T01:11:53;1.20;99.90
44894;DHT22;30625;52.206;21.030;2023-12-28T01:14:18;1.20;99.90
44894;DHT22;30625;52.206;21.030;2023-12-28T01:16:44;1.30;99.90
44894;DHT22;30625;52.206;21.030;2023-12-28T01:19:09;1.30;99.90
44894;DHT22;30625;52.206;21.030;2023-12-28T01:21:35;1.30;99.90
44894;DHT22;30625;52.206;21.030;2023-12-28T01:24:01;1.30;99.90
44894;DHT22;30625;52.206;21.030;2023-12-28T01:26:30;1.40;99.90
44894;DHT22;30625;52.206;21.030;2023-12-28T01:28:56;1.30;99.90
44894;DHT22;30625;52.206;21.030;2023-12-28T01:31:22;1.30;99.90
44894;DHT22;30625;52.206;21.030;2023-12-28T01:33:47;1.40;99.90
44894;DHT22;30625;52.206;21.030;2023-12-28T01:36:20;1.30;99.90
44894;DHT22;30625;52.206;21.030;2023-12-28T01:38:46;1.30;99.90
44894;DHT22;30625;52.206;21.030;2023-12-28T01:41:12;1.40;99.90
44894;DHT22;30625;52.206;21.030;2023-12-28T01:43:38;1.40;99.90
44894;DHT22;30625;52.206;21.030;2023-12-28T01:46:05;1.50;99.90
44894;DHT22;30625;52.206;21.030;2023-12-28T01:48:33;1.30;99.90
44894;DHT22;30625;52.206;21.030;2023-12-28T01:51:02;1.40;99.90
44894;DHT22;30625;52.206;21.030;2023-12-28T01:53:28;1.40;99.90
44894;DHT22;30625;52.206;21.030;2023-12-28T01:55:55;1.50;99.90
44894;DHT22;30625;52.206;21.030;2023-12-28T01:58:22;1.50;99.90
44894;DHT22;30625;52.206;21.030;2023-12-28T02:00:49;1.40;99.90
44894;DHT22;30625;52.206;21.030;2023-12-28T02:03:15;1.40;99.90
44894;DHT22;30625;52.206;21.030;2023-12-28T02:05:41;1.30;99.90
44894;DHT22;30625;52.206;21.030;2023-12-28T02:08:07;1.20;99.90
44894;DHT22;30625;52.206;21.030;2023-12-28T02:10:33;1.20;99.90
44894;DHT22;30625;52.206;21.030;2023-12-28T02:12:58;1.20;99.90
44894;DHT22;30625;52.206;21.030;2023-12-28T02:15:24;1.20;99.90
44894;DHT22;30625;52.206;21.030;2023-12-28T02:17:59;1.30;99.90
44894;DHT22;30625;52.206;21.030;2023-12-28T02:20:29;1.40;99.90
44894;DHT22;30625;52.206;21.030;2023-12-28T02:22:56;1.40;99.90
44894;DHT22;30625;52.206;21.030;2023-12-28T02:25:22;1.40;99.90
44894;DHT22;30625;52.206;21.030;2023-12-28T02:27:49;1.30;99.90
44894;DHT22;30625;52.206;21.030;2023-12-28T02:30:22;1.40;99.90
44894;DHT22;30625;52.206;21.030;2023-12-28T02:35:33;1.40;99.90
44894;DHT22;30625;52.206;21.030;2023-12-28T02:38:02;1.50;99.90
44894;DHT22;30625;52.206;21.030;2023-12-28T02:40:31;1.40;99.90
44894;DHT22;30625;52.206;21.030;2023-12-28T02:42:58;1.40;99.90
44894;DHT22;30625;52.206;21.030;2023-12-28T02:45:23;1.50;99.90
44894;DHT22;30625;52.206;21.030;2023-12-28T02:47:49;1.40;99.90
44894;DHT22;30625;52.206;21.030;2023-12-28T02:50:17;1.40;99.90
44894;DHT22;30625;52.206;21.030;2023-12-28T02:52:43;1.40;99.90
44894;DHT22;30625;52.206;21.030;2023-12-28T02:55:08;1.40;99.90
44894;DHT22;30625;52.206;21.030;2023-12-28T02:57:34;1.50;99.90
44894;DHT22;30625;52.206;21.030;2023-12-28T03:00:06;1.50;99.90
44894;DHT22;30625;52.206;21.030;2023-12-28T03:02:38;1.60;99.90
44894;DHT22;30625;52.206;21.030;2023-12-28T03:05:06;1.50;99.90
44894;DHT22;30625;52.206;21.030;2023-12-28T03:07:33;1.50;99.90
44894;DHT22;30625;52.206;21.030;2023-12-28T03:09:58;1.50;99.90
44894;DHT22;30625;52.206;21.030;2023-12-28T03:12:25;1.60;99.90
44894;DHT22;30625;52.206;21.030;2023-12-28T03:14:50;1.60;99.90
44894;DHT22;30625;52.206;21.030;2023-12-28T03:17:17;1.60;99.90
44894;DHT22;30625;52.206;21.030;2023-12-28T03:19:46;1.50;99.90
44894;DHT22;30625;52.206;21.030;2023-12-28T03:22:12;1.50;99.90
44894;DHT22;30625;52.206;21.030;2023-12-28T03:24:40;1.50;99.90
44894;DHT22;30625;52.206;21.030;2023-12-28T03:27:06;1.60;99.90
44894;DHT22;30625;52.206;21.030;2023-12-28T03:29:31;1.50;99.90
44894;DHT22;30625;52.206;21.030;2023-12-28T03:31:58;1.60;99.90
44894;DHT22;30625;52.206;21.030;2023-12-28T03:34:24;1.60;99.90
44894;DHT22;30625;52.206;21.030;2023-12-28T03:36:52;1.60;99.90
44894;DHT22;30625;52.206;21.030;2023-12-28T03:39:19;1.60;99.90
44894;DHT22;30625;52.206;21.030;2023-12-28T03:41:45;1.60;99.90
44894;DHT22;30625;52.206;21.030;2023-12-28T03:44:19;1.70;99.90
44894;DHT22;30625;52.206;21.030;2023-12-28T03:46:50;1.70;99.90
44894;DHT22;30625;52.206;21.030;2023-12-28T03:49:20;1.70;99.90
44894;DHT22;30625;52.206;21.030;2023-12-28T03:51:49;1.70;99.90
44894;DHT22;30625;52.206;21.030;2023-12-28T03:54:17;1.70;99.90
44894;DHT22;30625;52.206;21.030;2023-12-28T03:56:45;1.70;99.90
44894;DHT22;30625;52.206;21.030;2023-12-28T03:59:14;1.70;99.90
44894;DHT22;30625;52.206;21.030;2023-12-28T04:01:44;1.70;99.90
44894;DHT22;30625;52.206;21.030;2023-12-28T04:04:09;1.70;99.90
44894;DHT22;30625;52.206;21.030;2023-12-28T04:06:35;1.80;99.90
44894;DHT22;30625;52.206;21.030;2023-12-28T04:09:04;1.70;99.90
44894;DHT22;30625;52.206;21.030;2023-12-28T04:11:29;1.70;99.90
44894;DHT22;30625;52.206;21.030;2023-12-28T04:13:55;1.80;99.90
44894;DHT22;30625;52.206;21.030;2023-12-28T04:16:20;1.80;99.90
44894;DHT22;30625;52.206;21.030;2023-12-28T04:18:47;1.80;99.90
44894;DHT22;30625;52.206;21.030;2023-12-28T04:21:13;1.70;99.90
44894;DHT22;30625;52.206;21.030;2023-12-28T04:23:41;1.80;99.90
44894;DHT22;30625;52.206;21.030;2023-12-28T04:26:07;1.70;99.90
44894;DHT22;30625;52.206;21.030;2023-12-28T04:28:32;1.70;99.90
44894;DHT22;30625;52.206;21.030;2023-12-28T04:31:02;1.70;99.90
44894;DHT22;30625;52.206;21.030;2023-12-28T04:33:28;1.70;99.90
44894;DHT22;30625;52.206;21.030;2023-12-28T04:35:54;1.70;99.90
44894;DHT22;30625;52.206;21.030;2023-12-28T04:38:19;1.70;99.90
44894;DHT22;30625;52.206;21.030;2023-12-28T04:40:45;1.70;99.90
44894;DHT22;30625;52.206;21.030;2023-12-28T04:43:11;1.80;99.90
44894;DHT22;30625;52.206;21.030;2023-12-28T04:45:37;1.70;99.90
44894;DHT22;30625;52.206;21.030;2023-12-28T04:48:04;1.80;99.90
44894;DHT22;30625;52.206;21.030;2023-12-28T04:50:29;1.80;99.90
44894;DHT22;30625;52.206;21.030;2023-12-28T04:52:55;1.90;99.90
44894;DHT22;30625;52.206;21.030;2023-12-28T04:55:21;1.80;99.90
44894;DHT22;30625;52.206;21.030;2023-12-28T04:57:46;1.80;99.90
44894;DHT22;30625;52.206;21.030;2023-12-28T05:00:12;1.90;99.90
44894;DHT22;30625;52.206;21.030;2023-12-28T05:02:38;1.90;99.90
44894;DHT22;30625;52.206;21.030;2023-12-28T05:05:03;1.90;99.90
44894;DHT22;30625;52.206;21.030;2023-12-28T05:07:29;1.90;99.90
44894;DHT22;30625;52.206;21.030;2023-12-28T05:09:55;1.90;99.90
44894;DHT22;30625;52.206;21.030;2023-12-28T05:12:20;1.90;99.90
44894;DHT22;30625;52.206;21.030;2023-12-28T05:14:47;1.90;99.90
44894;DHT22;30625;52.206;21.030;2023-12-28T05:17:13;1.90;99.90
44894;DHT22;30625;52.206;21.030;2023-12-28T05:19:38;1.90;99.90
44894;DHT22;30625;52.206;21.030;2023-12-28T05:22:04;1.90;99.90
44894;DHT22;30625;52.206;21.030;2023-12-28T05:24:32;1.90;99.90
44894;DHT22;30625;52.206;21.030;2023-12-28T05:26:58;2.00;99.90
44894;DHT22;30625;52.206;21.030;2023-12-28T05:29:24;2.00;99.90
44894;DHT22;30625;52.206;21.030;2023-12-28T05:31:49;2.10;99.90
44894;DHT22;30625;52.206;21.030;2023-12-28T05:34:15;2.10;99.90
44894;DHT22;30625;52.206;21.030;2023-12-28T05:36:41;2.10;99.90
44894;DHT22;30625;52.206;21.030;2023-12-28T05:39:08;2.20;99.90
44894;DHT22;30625;52.206;21.030;2023-12-28T05:41:38;2.20;99.90
44894;DHT22;30625;52.206;21.030;2023-12-28T05:44:04;2.20;99.90
44894;DHT22;30625;52.206;21.030;2023-12-28T05:46:31;2.20;99.90
44894;DHT22;30625;52.206;21.030;2023-12-28T05:48:58;2.20;99.90
44894;DHT22;30625;52.206;21.030;2023-12-28T05:51:24;2.20;99.90
44894;DHT22;30625;52.206;21.030;2023-12-28T05:53:50;2.10;99.90
44894;DHT22;30625;52.206;21.030;2023-12-28T05:56:16;2.20;99.90
44894;DHT22;30625;52.206;21.030;2023-12-28T05:58:42;2.10;99.90
44894;DHT22;30625;52.206;21.030;2023-12-28T06:01:07;2.10;99.90
44894;DHT22;30625;52.206;21.030;2023-12-28T06:03:33;2.10;99.90
44894;DHT22;30625;52.206;21.030;2023-12-28T06:05:59;2.10;99.90
44894;DHT22;30625;52.206;21.030;2023-12-28T06:08:24;2.20;99.90
44894;DHT22;30625;52.206;21.030;2023-12-28T06:10:50;2.20;99.90
44894;DHT22;30625;52.206;21.030;2023-12-28T06:13:15;2.10;99.90
44894;DHT22;30625;52.206;21.030;2023-12-28T06:15:41;2.10;99.90
44894;DHT22;30625;52.206;21.030;2023-12-28T06:18:08;2.10;99.90
44894;DHT22;30625;52.206;21.030;2023-12-28T06:20:36;2.10;99.90
44894;DHT22;30625;52.206;21.030;2023-12-28T06:23:02;2.10;99.90
44894;DHT22;30625;52.206;21.030;2023-12-28T06:25:29;2.10;99.90
44894;DHT22;30625;52.206;21.030;2023-12-28T06:27:58;2.00;99.90
44894;DHT22;30625;52.206;21.030;2023-12-28T06:30:28;2.10;99.90
44894;DHT22;30625;52.206;21.030;2023-12-28T06:32:55;2.10;99.90
44894;DHT22;30625;52.206;21.030;2023-12-28T06:35:23;2.10;99.90
44894;DHT22;30625;52.206;21.030;2023-12-28T06:37:49;2.10;99.90
44894;DHT22;30625;52.206;21.030;2023-12-28T06:40:16;2.10;99.90
44894;DHT22;30625;52.206;21.030;2023-12-28T06:42:41;2.10;99.90
44894;DHT22;30625;52.206;21.030;2023-12-28T06:45:09;2.10;99.90
44894;DHT22;30625;52.206;21.030;2023-12-28T06:47:39;2.00;99.90
44894;DHT22;30625;52.206;21.030;2023-12-28T06:50:07;2.00;99.90
44894;DHT22;30625;52.206;21.030;2023-12-28T06:52:33;2.00;99.90
44894;DHT22;30625;52.206;21.030;2023-12-28T06:54:59;2.00;99.90
44894;DHT22;30625;52.206;21.030;2023-12-28T06:57:24;2.00;99.90
44894;DHT22;30625;52.206;21.030;2023-12-28T06:59:50;2.00;99.90
44894;DHT22;30625;52.206;21.030;2023-12-28T07:02:16;2.10;99.90
44894;DHT22;30625;52.206;21.030;2023-12-28T07:04:43;2.10;99.90
44894;DHT22;30625;52.206;21.030;2023-12-28T07:07:09;2.10;99.90
44894;DHT22;30625;52.206;21.030;2023-12-28T07:09:36;2.20;99.90
44894;DHT22;30625;52.206;21.030;2023-12-28T07:12:03;2.20;99.90
44894;DHT22;30625;52.206;21.030;2023-12-28T07:14:31;2.30;99.90
44894;DHT22;30625;52.206;21.030;2023-12-28T07:16:57;2.30;99.90
44894;DHT22;30625;52.206;21.030;2023-12-28T07:19:23;2.40;99.90
44894;DHT22;30625;52.206;21.030;2023-12-28T07:21:53;2.50;99.90
44894;DHT22;30625;52.206;21.030;2023-12-28T07:24:43;2.50;99.90
44894;DHT22;30625;52.206;21.030;2023-12-28T07:27:09;2.60;99.90
44894;DHT22;30625;52.206;21.030;2023-12-28T07:29:36;2.60;99.90
44894;DHT22;30625;52.206;21.030;2023-12-28T07:32:01;2.60;99.90
44894;DHT22;30625;52.206;21.030;2023-12-28T07:34:27;2.60;99.90
44894;DHT22;30625;52.206;21.030;2023-12-28T07:36:54;2.70;99.90
44894;DHT22;30625;52.206;21.030;2023-12-28T07:39:20;2.70;99.90
44894;DHT22;30625;52.206;21.030;2023-12-28T07:41:45;2.80;99.90
44894;DHT22;30625;52.206;21.030;2023-12-28T07:44:11;2.80;99.90
44894;DHT22;30625;52.206;21.030;2023-12-28T07:46:36;2.90;99.90
44894;DHT22;30625;52.206;21.030;2023-12-28T07:49:02;2.90;99.90
44894;DHT22;30625;52.206;21.030;2023-12-28T07:51:27;2.90;99.90
44894;DHT22;30625;52.206;21.030;2023-12-28T07:53:54;3.00;99.90
44894;DHT22;30625;52.206;21.030;2023-12-28T07:56:20;3.10;99.90
44894;DHT22;30625;52.206;21.030;2023-12-28T07:58:46;3.10;99.90
44894;DHT22;30625;52.206;21.030;2023-12-28T08:01:11;3.20;99.90
44894;DHT22;30625;52.206;21.030;2023-12-28T08:03:37;3.30;99.90
44894;DHT22;30625;52.206;21.030;2023-12-28T08:06:03;3.40;99.90
44894;DHT22;30625;52.206;21.030;2023-12-28T08:08:29;3.40;99.90
44894;DHT22;30625;52.206;21.030;2023-12-28T08:10:54;3.40;99.90
44894;DHT22;30625;52.206;21.030;2023-12-28T08:13:20;3.60;99.90
44894;DHT22;30625;52.206;21.030;2023-12-28T08:15:46;3.60;99.90
44894;DHT22;30625;52.206;21.030;2023-12-28T08:18:12;3.70;99.90
44894;DHT22;30625;52.206;21.030;2023-12-28T08:20:38;3.70;99.90
44894;DHT22;30625;52.206;21.030;2023-12-28T08:23:04;3.80;99.90
44894;DHT22;30625;52.206;21.030;2023-12-28T08:25:33;3.80;99.90
44894;DHT22;30625;52.206;21.030;2023-12-28T08:27:58;3.80;99.90
44894;DHT22;30625;52.206;21.030;2023-12-28T08:30:24;3.90;99.90
44894;DHT22;30625;52.206;21.030;2023-12-28T08:32:50;4.00;99.90
44894;DHT22;30625;52.206;21.030;2023-12-28T08:35:15;4.00;99.90
44894;DHT22;30625;52.206;21.030;2023-12-28T08:37:41;4.20;99.90
44894;DHT22;30625;52.206;21.030;2023-12-28T08:40:07;4.10;99.90
44894;DHT22;30625;52.206;21.030;2023-12-28T08:42:33;4.20;99.90
44894;DHT22;30625;52.206;21.030;2023-12-28T08:44:58;4.20;99.90
44894;DHT22;30625;52.206;21.030;2023-12-28T08:47:24;4.30;99.90
44894;DHT22;30625;52.206;21.030;2023-12-28T08:49:49;4.40;99.90
44894;DHT22;30625;52.206;21.030;2023-12-28T08:52:15;4.50;99.90
44894;DHT22;30625;52.206;21.030;2023-12-28T08:54:41;4.50;99.90
44894;DHT22;30625;52.206;21.030;2023-12-28T08:57:07;4.60;99.90
44894;DHT22;30625;52.206;21.030;2023-12-28T08:59:36;4.60;99.90
44894;DHT22;30625;52.206;21.030;2023-12-28T09:02:03;4.70;99.90
44894;DHT22;30625;52.206;21.030;2023-12-28T09:04:29;4.80;99.90
44894;DHT22;30625;52.206;21.030;2023-12-28T09:06:54;4.80;99.90
44894;DHT22;30625;52.206;21.030;2023-12-28T09:09:20;4.90;99.90
44894;DHT22;30625;52.206;21.030;2023-12-28T09:11:46;5.00;99.90
44894;DHT22;30625;52.206;21.030;2023-12-28T09:14:11;5.10;99.90
44894;DHT22;30625;52.206;21.030;2023-12-28T09:16:37;5.10;99.90
44894;DHT22;30625;52.206;21.030;2023-12-28T09:19:04;5.20;99.90
44894;DHT22;30625;52.206;21.030;2023-12-28T09:21:30;5.30;99.90
44894;DHT22;30625;52.206;21.030;2023-12-28T09:23:55;5.40;99.90
44894;DHT22;30625;52.206;21.030;2023-12-28T09:26:22;5.50;99.90
44894;DHT22;30625;52.206;21.030;2023-12-28T09:28:47;5.50;99.90
44894;DHT22;30625;52.206;21.030;2023-12-28T09:31:13;5.60;99.90
44894;DHT22;30625;52.206;21.030;2023-12-28T09:33:39;5.70;99.90
44894;DHT22;30625;52.206;21.030;2023-12-28T09:36:06;5.80;99.90
44894;DHT22;30625;52.206;21.030;2023-12-28T09:38:31;6.00;99.90
44894;DHT22;30625;52.206;21.030;2023-12-28T09:40:58;6.10;99.90
44894;DHT22;30625;52.206;21.030;2023-12-28T09:43:40;6.10;99.90
44894;DHT22;30625;52.206;21.030;2023-12-28T09:46:09;6.10;99.90
44894;DHT22;30625;52.206;21.030;2023-12-28T09:48:37;6.20;99.90
44894;DHT22;30625;52.206;21.030;2023-12-28T09:51:04;6.30;99.90
44894;DHT22;30625;52.206;21.030;2023-12-28T09:53:31;6.30;99.90
44894;DHT22;30625;52.206;21.030;2023-12-28T09:55:57;6.30;99.90
44894;DHT22;30625;52.206;21.030;2023-12-28T09:58:24;6.10;99.90
44894;DHT22;30625;52.206;21.030;2023-12-28T10:00:50;6.10;99.90
44894;DHT22;30625;52.206;21.030;2023-12-28T10:03:17;6.10;99.90
44894;DHT22;30625;52.206;21.030;2023-12-28T10:05:43;6.10;99.90
44894;DHT22;30625;52.206;21.030;2023-12-28T10:08:11;6.20;99.90
44894;DHT22;30625;52.206;21.030;2023-12-28T10:10:37;6.40;99.90
44894;DHT22;30625;52.206;21.030;2023-12-28T10:13:07;6.60;99.90
44894;DHT22;30625;52.206;21.030;2023-12-28T10:15:34;6.70;99.90
44894;DHT22;30625;52.206;21.030;2023-12-28T10:18:00;6.80;99.90
44894;DHT22;30625;52.206;21.030;2023-12-28T10:20:28;6.80;99.90
44894;DHT22;30625;52.206;21.030;2023-12-28T10:22:54;7.00;99.90
44894;DHT22;30625;52.206;21.030;2023-12-28T10:25:20;7.00;99.90
44894;DHT22;30625;52.206;21.030;2023-12-28T10:27:49;7.10;99.90
44894;DHT22;30625;52.206;21.030;2023-12-28T10:30:17;7.10;99.90
44894;DHT22;30625;52.206;21.030;2023-12-28T10:32:42;7.10;99.90
44894;DHT22;30625;52.206;21.030;2023-12-28T10:35:08;7.20;99.90
44894;DHT22;30625;52.206;21.030;2023-12-28T10:37:35;7.20;99.90
44894;DHT22;30625;52.206;21.030;2023-12-28T10:40:06;7.30;99.90
44894;DHT22;30625;52.206;21.030;2023-12-28T10:42:42;7.30;99.90
44894;DHT22;30625;52.206;21.030;2023-12-28T10:45:10;7.40;99.90
44894;DHT22;30625;52.206;21.030;2023-12-28T10:47:38;7.40;99.90
44894;DHT22;30625;52.206;21.030;2023-12-28T10:50:06;7.50;99.90
44894;DHT22;30625;52.206;21.030;2023-12-28T10:52:34;7.50;99.90
44894;DHT22;30625;52.206;21.030;2023-12-28T10:58:33;7.50;99.90
44894;DHT22;30625;52.206;21.030;2023-12-28T11:00:58;7.50;99.90
44894;DHT22;30625;52.206;21.030;2023-12-28T11:03:30;7.50;99.90
44894;DHT22;30625;52.206;21.030;2023-12-28T11:05:56;7.50;99.90
44894;DHT22;30625;52.206;21.030;2023-12-28T11:08:23;7.50;99.90
44894;DHT22;30625;52.206;21.030;2023-12-28T11:10:50;7.50;99.90
44894;DHT22;30625;52.206;21.030;2023-12-28T11:13:19;7.50;99.90
44894;DHT22;30625;52.206;21.030;2023-12-28T11:15:47;7.40;99.90
44894;DHT22;30625;52.206;21.030;2023-12-28T11:18:16;7.30;99.90
44894;DHT22;30625;52.206;21.030;2023-12-28T11:20:43;7.40;99.90
44894;DHT22;30625;52.206;21.030;2023-12-28T11:23:10;7.40;99.90
44894;DHT22;30625;52.206;21.030;2023-12-28T11:25:38;7.30;99.90
44894;DHT22;30625;52.206;21.030;2023-12-28T11:28:10;7.30;99.90
44894;DHT22;30625;52.206;21.030;2023-12-28T11:30:37;7.20;99.90
44894;DHT22;30625;52.206;21.030;2023-12-28T11:33:04;7.20;99.90
44894;DHT22;30625;52.206;21.030;2023-12-28T11:35:52;7.20;99.90
44894;DHT22;30625;52.206;21.030;2023-12-28T11:38:18;7.20;99.90
44894;DHT22;30625;52.206;21.030;2023-12-28T11:40:47;7.10;99.90
44894;DHT22;30625;52.206;21.030;2023-12-28T11:43:18;7.20;99.90
44894;DHT22;30625;52.206;21.030;2023-12-28T11:45:49;7.10;99.90
44894;DHT22;30625;52.206;21.030;2023-12-28T11:48:25;7.10;99.90
44894;DHT22;30625;52.206;21.030;2023-12-28T11:50:57;7.00;99.90
44894;DHT22;30625;52.206;21.030;2023-12-28T11:53:24;7.00;99.90
44894;DHT22;30625;52.206;21.030;2023-12-28T11:55:50;7.00;99.90
44894;DHT22;30625;52.206;21.030;2023-12-28T11:58:17;7.00;99.90
44894;DHT22;30625;52.206;21.030;2023-12-28T12:00:43;7.00;99.90
44894;DHT22;30625;52.206;21.030;2023-12-28T12:03:13;7.00;99.90
44894;DHT22;30625;52.206;21.030;2023-12-28T12:05:39;7.00;99.90
44894;DHT22;30625;52.206;21.030;2023-12-28T12:08:09;7.00;99.90
44894;DHT22;30625;52.206;21.030;2023-12-28T12:10:37;7.00;99.90
44894;DHT22;30625;52.206;21.030;2023-12-28T12:13:03;7.10;99.90
44894;DHT22;30625;52.206;21.030;2023-12-28T12:15:31;7.10;99.90
44894;DHT22;30625;52.206;21.030;2023-12-28T12:17:58;7.10;99.90
44894;DHT22;30625;52.206;21.030;2023-12-28T12:20:26;7.10;99.90
44894;DHT22;30625;52.206;21.030;2023-12-28T12:22:52;7.20;99.90
44894;DHT22;30625;52.206;21.030;2023-12-28T12:25:19;7.20;99.90
44894;DHT22;30625;52.206;21.030;2023-12-28T12:27:46;7.20;99.90
44894;DHT22;30625;52.206;21.030;2023-12-28T12:30:13;7.20;99.90
44894;DHT22;30625;52.206;21.030;2023-12-28T12:32:39;7.20;99.90
44894;DHT22;30625;52.206;21.030;2023-12-28T12:35:11;7.20;99.90
44894;DHT22;30625;52.206;21.030;2023-12-28T12:37:54;7.20;99.90
44894;DHT22;30625;52.206;21.030;2023-12-28T12:40:20;7.30;99.90
44894;DHT22;30625;52.206;21.030;2023-12-28T12:42:55;7.40;99.90
44894;DHT22;30625;52.206;21.030;2023-12-28T12:45:21;7.30;99.90
44894;DHT22;30625;52.206;21.030;2023-12-28T12:47:47;7.30;99.90
44894;DHT22;30625;52.206;21.030;2023-12-28T12:50:14;7.30;99.90
44894;DHT22;30625;52.206;21.030;2023-12-28T12:52:42;7.30;99.90
44894;DHT22;30625;52.206;21.030;2023-12-28T12:55:11;7.40;99.90
44894;DHT22;30625;52.206;21.030;2023-12-28T12:57:39;7.50;99.90
44894;DHT22;30625;52.206;21.030;2023-12-28T13:00:06;7.50;99.90
44894;DHT22;30625;52.206;21.030;2023-12-28T13:02:45;7.60;99.90
44894;DHT22;30625;52.206;21.030;2023-12-28T13:05:12;7.60;99.90
44894;DHT22;30625;52.206;21.030;2023-12-28T13:07:38;7.70;99.90
44894;DHT22;30625;52.206;21.030;2023-12-28T13:10:04;7.70;99.90
44894;DHT22;30625;52.206;21.030;2023-12-28T13:12:31;7.80;99.90
44894;DHT22;30625;52.206;21.030;2023-12-28T13:14:58;7.70;99.90
44894;DHT22;30625;52.206;21.030;2023-12-28T13:17:23;7.80;99.90
44894;DHT22;30625;52.206;21.030;2023-12-28T13:19:49;7.80;99.90
44894;DHT22;30625;52.206;21.030;2023-12-28T13:22:15;7.70;99.90
44894;DHT22;30625;52.206;21.030;2023-12-28T13:24:40;7.80;99.90
44894;DHT22;30625;52.206;21.030;2023-12-28T13:27:06;7.90;99.90
44894;DHT22;30625;52.206;21.030;2023-12-28T13:29:31;7.90;99.90
44894;DHT22;30625;52.206;21.030;2023-12-28T13:31:57;7.90;99.90
44894;DHT22;30625;52.206;21.030;2023-12-28T13:34:23;7.90;99.90
44894;DHT22;30625;52.206;21.030;2023-12-28T13:36:50;7.90;99.90
44894;DHT22;30625;52.206;21.030;2023-12-28T13:39:15;7.90;99.90
44894;DHT22;30625;52.206;21.030;2023-12-28T13:41:44;7.80;99.90
44894;DHT22;30625;52.206;21.030;2023-12-28T13:44:09;7.90;99.90
44894;DHT22;30625;52.206;21.030;2023-12-28T13:46:38;7.90;99.90
44894;DHT22;30625;52.206;21.030;2023-12-28T13:49:03;7.90;99.90
44894;DHT22;30625;52.206;21.030;2023-12-28T13:51:33;7.90;99.90
44894;DHT22;30625;52.206;21.030;2023-12-28T13:54:01;7.80;99.90
44894;DHT22;30625;52.206;21.030;2023-12-28T13:56:26;7.80;99.90
44894;DHT22;30625;52.206;21.030;2023-12-28T13:58:52;7.80;99.90
44894;DHT22;30625;52.206;21.030;2023-12-28T14:01:18;7.90;99.90
44894;DHT22;30625;52.206;21.030;2023-12-28T14:03:43;7.80;99.90
44894;DHT22;30625;52.206;21.030;2023-12-28T14:06:14;7.90;99.90
44894;DHT22;30625;52.206;21.030;2023-12-28T14:08:41;7.80;99.90
44894;DHT22;30625;52.206;21.030;2023-12-28T14:11:07;7.80;99.90
44894;DHT22;30625;52.206;21.030;2023-12-28T14:13:34;7.80;99.90
44894;DHT22;30625;52.206;21.030;2023-12-28T14:16:00;7.70;99.90
44894;DHT22;30625;52.206;21.030;2023-12-28T14:18:26;7.70;99.90
44894;DHT22;30625;52.206;21.030;2023-12-28T14:20:52;7.70;99.90
44894;DHT22;30625;52.206;21.030;2023-12-28T14:23:19;7.70;99.90
44894;DHT22;30625;52.206;21.030;2023-12-28T14:25:45;7.70;99.90
44894;DHT22;30625;52.206;21.030;2023-12-28T14:28:20;7.70;99.90
44894;DHT22;30625;52.206;21.030;2023-12-28T14:30:47;7.70;99.90
44894;DHT22;30625;52.206;21.030;2023-12-28T14:33:13;7.70;99.90
44894;DHT22;30625;52.206;21.030;2023-12-28T14:35:40;7.70;99.90
44894;DHT22;30625;52.206;21.030;2023-12-28T14:38:06;7.70;99.90
44894;DHT22;30625;52.206;21.030;2023-12-28T14:40:33;7.70;99.90
44894;DHT22;30625;52.206;21.030;2023-12-28T14:43:03;7.80;99.90
44894;DHT22;30625;52.206;21.030;2023-12-28T14:45:29;7.80;99.90
44894;DHT22;30625;52.206;21.030;2023-12-28T14:47:55;7.80;99.90
44894;DHT22;30625;52.206;21.030;2023-12-28T14:50:22;7.90;99.90
44894;DHT22;30625;52.206;21.030;2023-12-28T14:52:47;7.90;99.90
44894;DHT22;30625;52.206;21.030;2023-12-28T14:55:13;7.90;99.90
44894;DHT22;30625;52.206;21.030;2023-12-28T14:57:39;7.90;99.90
44894;DHT22;30625;52.206;21.030;2023-12-28T15:00:05;7.90;99.90
44894;DHT22;30625;52.206;21.030;2023-12-28T15:02:32;7.90;99.90
44894;DHT22;30625;52.206;21.030;2023-12-28T15:04:58;7.90;99.90
44894;DHT22;30625;52.206;21.030;2023-12-28T15:07:27;7.90;99.90
44894;DHT22;30625;52.206;21.030;2023-12-28T15:09:54;7.90;99.90
44894;DHT22;30625;52.206;21.030;2023-12-28T15:12:22;7.90;99.90
44894;DHT22;30625;52.206;21.030;2023-12-28T15:14:48;7.80;99.90
44894;DHT22;30625;52.206;21.030;2023-12-28T15:17:14;7.90;99.90
44894;DHT22;30625;52.206;21.030;2023-12-28T15:19:40;7.90;99.90
44894;DHT22;30625;52.206;21.030;2023-12-28T15:22:07;7.80;99.90
44894;DHT22;30625;52.206;21.030;2023-12-28T15:24:33;7.80;99.90
44894;DHT22;30625;52.206;21.030;2023-12-28T15:26:59;7.70;99.90
44894;DHT22;30625;52.206;21.030;2023-12-28T15:29:25;7.70;99.90
44894;DHT22;30625;52.206;21.030;2023-12-28T15:31:52;7.80;99.90
44894;DHT22;30625;52.206;21.030;2023-12-28T15:34:18;7.70;99.90